Boston, Massachusetts
Traffic Map
Current Weather Conditions
Boston, Massachusetts
Overcast Light Rain
Overcast

Feels Like: 8°
Wind Chill: Ceiling: 700
Heat Index: Visibility: 1.2mi
Dew Point: Wind: 5mph
Humidity: 97% Direction: 10° (N)
Pressure: 29.65in Gusts: 0mph
Raw Report DataKBOS 262254Z 01004KT 1 1/4SM -RA BR BKN007 OVC020 09/09 A2965 RMK AO2 SFC VIS 2 DZB47E52 SLP038 P0003 T00940089
Traffic Incident Summary
Active as of:
Severity:
Category:
InformationThere was an issue retrieving the traffic information for this location. Please try a different location or try again shortly.
Advertisements
Track Severe Weather on mobile